Centennial, Wyoming
Current Conditions -  °F | °C
As of 12:53 PM on Friday 31 Oct 2014 (Local Time) from KLAR Reporting Station
Clear Clear  
Wind Chill: 56°   Ceiling: Unl
Heat Index: 56°   Visibility: 10mi
Dew Point: 25°   Wind: 14mph
Humidity: 30%   Direction: 150°SSE
Pressure: 30.16"   Gusts: NA
Location:  41.3°N, 106.14°W
Report Text: KLAR 311853Z AUTO 15012KT 10SM CLR 13/M04 A3016 RMK AO2 SLP155 T01331039
Loading
Personal Weather Stations






























Interactive Weather Map
Tropical Storm Tracking
New forecast layout! Learn more

10-Day Weather Forecast

Advertisements
Track Severe Weather on mobile